Gulkana, Gulkana Airport (PAGK)

NameGulkana Airport
CityGulkana
CountryUnited States
ICAOPAGK
IATAGKN
Altitude483 m
CoordinatesGoogle Map
Live Air TrafficLiveATC.net
METARPAGK 201502Z AUTO 26003KT 10SM SCT025 M03/M06 A2983 RMK AO2 T10281061 TSNO
2019-03-20 15:02:00 Wind: West-Southwest (260°) 1.54 m/s - Visibility: 16093.4 m - Temperature: -3 °C - Dew point: -6 °C - Humidity: 80% - Pressure: 1010.16 hPa
Statistics

The table below shows the detailed information of all flights to/from Gulkana, Gulkana Airport (PAGK).